Belleair Bluffs, FL (33770)

3:23 PM EDT on September 22, 2014 (GMT -0400)
Taylor Park area | Change Station
CLOSE
Current Station
Personal Weather Station
Location: Largo, FL
Elevation: 62 ft
Nearby Weather Stations

Elev 62 ft 27.91 °N, 82.81 °W | Updated 12 minutes ago

Rain
Rain
77.0 °F
Feels Like 78 °F
N
2.2
Wind Variable Wind from NNE

Today
High -- | Low -- °F
--% Chance of Precip.
Yesterday
High -- | Low -- °F
Precip. -- in
7:19 AM 7:27 PM
Waning Crescent, 2% visible
Pressure 29.99 in
Visibility 10.0 miles
Clouds Few 3500 ft
Mostly Cloudy 7500 ft
Overcast 11000 ft
Heat Index 78 °F
Dew Point 76 °F
Humidity 98%
Rainfall 0.15 in
Snow Depth Not available.
UV 3 out of 12
Pollen 2.10 out of 12
Air Quality Not available.
Flu Activity Not available.
METAR KPIE 221853Z 20006KT 10SM -RA FEW035 BKN075 OVC110 24/23 A2999 RMK AO2 LTG DSNT SW SLP155 P0003 T02390228

More Conditions Fewer Conditions

Pressure 29.99 in
Visibility 10.0 miles
Clouds Few 3500 ft
Mostly Cloudy 7500 ft
Overcast 11000 ft
Heat Index 78 °F
Dew Point 76 °F
Humidity 98%
Rainfall 0.15 in
Snow Depth Not available.
UV 3 out of 12
Pollen 2.10 out of 12
Air Quality Not available.
Flu Activity Not available.
METAR KPIE 221853Z 20006KT 10SM -RA FEW035 BKN075 OVC110 24/23 A2999 RMK AO2 LTG DSNT SW SLP155 P0003 T02390228

More Conditions Fewer Conditions

10-Day Weather Forecast

Almanac

Astronomy

Sep. 22, 2014 Rise Set
Actual Time 7:19 AM EDT 7:27 PM EDT
Civil Twilight 6:56 AM EDT 7:51 PM EDT
Nautical Twilight 6:28 AM EDT 8:18 PM EDT
Astronomical Twilight 6:01 AM EDT 8:45 PM EDT
Moon 5:52 AM EDT 6:31 PM EDT
Length of Visible Light 12h 54m
Length of Day
12h 08m
Tomorrow will be 1m 40s shorter.
Waning Crescent, 2% of the Moon is Illuminated
Today
Waning Crescent
Sep 24
New
Oct 1
First Quarter
Oct 8
Full
Oct 15
Last Quarter

Today's Extremes

State Highs State Lows

Community

WunderPhotos

Upload Photos

1,755,514 photos uploaded!

WunderBlogs® & News

Nearby

Air Quality

  Air Quality AQ Index Pollutant
Monday Good
PM2.5
Monday Good
OZONE
Tuesday Good
PM2.5
Tuesday Good
OZONE

Snow Depth

Station Depth Elevation
No new snow has been reported.

Earthquake Activity

City Distance Mag. Time & Date
No recent earthquake activity has been reported nearby.
Minimum magnitude displayed is 2.5.

Coastal Water Temperatures

Place Temperature
Port Manatee, FL 82.9 °F
St Petersburg, FL 84.9 °F
Old Port Tampa, FL 82.9 °F

Nearby Weather Stations